sensor_id;sensor_type;location;lat;lon;timestamp;temperature;humidity
72762;SHT30;60886;55.034;73.150;2023-04-03T00:02:52;-1.41;69.14
72762;SHT30;60886;55.034;73.150;2023-04-03T00:05:59;-1.46;69.07
72762;SHT30;60886;55.034;73.150;2023-04-03T00:09:01;-1.45;69.04
72762;SHT30;60886;55.034;73.150;2023-04-03T00:12:02;-1.48;69.53
72762;SHT30;60886;55.034;73.150;2023-04-03T00:15:14;-1.41;68.94
72762;SHT30;60886;55.034;73.150;2023-04-03T00:18:17;-1.43;69.16
72762;SHT30;60886;55.034;73.150;2023-04-03T00:21:18;-1.42;69.27
72762;SHT30;60886;55.034;73.150;2023-04-03T00:24:27;-1.39;69.23
72762;SHT30;60886;55.034;73.150;2023-04-03T00:27:28;-1.46;69.21
72762;SHT30;60886;55.034;73.150;2023-04-03T00:30:35;-1.48;69.65
72762;SHT30;60886;55.034;73.150;2023-04-03T00:33:42;-1.46;69.49
72762;SHT30;60886;55.034;73.150;2023-04-03T00:36:53;-1.45;69.59
72762;SHT30;60886;55.034;73.150;2023-04-03T00:39:56;-1.48;69.71
72762;SHT30;60886;55.034;73.150;2023-04-03T00:42:59;-1.53;69.48
72762;SHT30;60886;55.034;73.150;2023-04-03T00:46:06;-1.58;69.81
72762;SHT30;60886;55.034;73.150;2023-04-03T00:49:11;-1.55;69.67
72762;SHT30;60886;55.034;73.150;2023-04-03T00:52:26;-1.58;69.73
72762;SHT30;60886;55.034;73.150;2023-04-03T00:55:39;-1.59;70.04
72762;SHT30;60886;55.034;73.150;2023-04-03T00:58:48;-1.56;69.81
72762;SHT30;60886;55.034;73.150;2023-04-03T01:01:52;-1.52;69.90
72762;SHT30;60886;55.034;73.150;2023-04-03T01:04:56;-1.46;69.97
72762;SHT30;60886;55.034;73.150;2023-04-03T01:07:58;-1.45;69.74
72762;SHT30;60886;55.034;73.150;2023-04-03T01:10:59;-1.41;69.59
72762;SHT30;60886;55.034;73.150;2023-04-03T01:14:02;-1.39;69.34
72762;SHT30;60886;55.034;73.150;2023-04-03T01:23:45;-1.25;69.15
72762;SHT30;60886;55.034;73.150;2023-04-03T01:26:48;-1.28;69.43
72762;SHT30;60886;55.034;73.150;2023-04-03T01:29:51;-1.22;69.45
72762;SHT30;60886;55.034;73.150;2023-04-03T01:32:52;-1.15;69.28
72762;SHT30;60886;55.034;73.150;2023-04-03T01:35:54;-1.12;69.12
72762;SHT30;60886;55.034;73.150;2023-04-03T01:38:58;-1.08;69.32
72762;SHT30;60886;55.034;73.150;2023-04-03T01:42:00;-0.97;69.05
72762;SHT30;60886;55.034;73.150;2023-04-03T01:45:14;-0.91;69.12
72762;SHT30;60886;55.034;73.150;2023-04-03T01:48:16;-0.81;68.72
72762;SHT30;60886;55.034;73.150;2023-04-03T01:51:17;-0.71;68.42
72762;SHT30;60886;55.034;73.150;2023-04-03T01:54:19;-0.67;68.09
72762;SHT30;60886;55.034;73.150;2023-04-03T01:57:22;-0.56;67.96
72762;SHT30;60886;55.034;73.150;2023-04-03T02:00:29;-0.49;67.83
72762;SHT30;60886;55.034;73.150;2023-04-03T02:03:31;-0.44;67.99
72762;SHT30;60886;55.034;73.150;2023-04-03T02:06:37;-0.33;67.65
72762;SHT30;60886;55.034;73.150;2023-04-03T02:09:40;-0.25;67.52
72762;SHT30;60886;55.034;73.150;2023-04-03T02:12:44;-0.07;67.28
72762;SHT30;60886;55.034;73.150;2023-04-03T02:15:46;0.09;66.49
72762;SHT30;60886;55.034;73.150;2023-04-03T02:18:56;0.32;65.50
72762;SHT30;60886;55.034;73.150;2023-04-03T02:21:58;0.50;65.54
72762;SHT30;60886;55.034;73.150;2023-04-03T02:24:59;0.66;64.76
72762;SHT30;60886;55.034;73.150;2023-04-03T02:28:01;0.84;64.52
72762;SHT30;60886;55.034;73.150;2023-04-03T02:31:04;1.10;64.64
72762;SHT30;60886;55.034;73.150;2023-04-03T02:34:07;1.37;63.87
72762;SHT30;60886;55.034;73.150;2023-04-03T02:37:10;1.65;62.68
72762;SHT30;60886;55.034;73.150;2023-04-03T02:40:22;1.81;61.43
72762;SHT30;60886;55.034;73.150;2023-04-03T02:43:25;1.92;59.53
72762;SHT30;60886;55.034;73.150;2023-04-03T02:46:32;2.05;60.69
72762;SHT30;60886;55.034;73.150;2023-04-03T02:49:34;2.30;61.28
72762;SHT30;60886;55.034;73.150;2023-04-03T02:52:35;2.58;60.57
72762;SHT30;60886;55.034;73.150;2023-04-03T02:55:47;2.73;58.94
72762;SHT30;60886;55.034;73.150;2023-04-03T02:58:48;2.73;59.19
72762;SHT30;60886;55.034;73.150;2023-04-03T03:01:52;2.84;59.31
72762;SHT30;60886;55.034;73.150;2023-04-03T03:04:54;2.87;58.85
72762;SHT30;60886;55.034;73.150;2023-04-03T03:07:57;2.98;59.31
72762;SHT30;60886;55.034;73.150;2023-04-03T03:10:58;3.04;59.17
72762;SHT30;60886;55.034;73.150;2023-04-03T03:14:00;3.29;58.42
72762;SHT30;60886;55.034;73.150;2023-04-03T03:17:01;3.40;57.82
72762;SHT30;60886;55.034;73.150;2023-04-03T03:20:04;3.62;58.64
72762;SHT30;60886;55.034;73.150;2023-04-03T03:23:06;3.67;56.85
72762;SHT30;60886;55.034;73.150;2023-04-03T03:26:10;3.89;57.64
72762;SHT30;60886;55.034;73.150;2023-04-03T03:29:22;4.10;57.31
72762;SHT30;60886;55.034;73.150;2023-04-03T03:32:23;4.21;56.66
72762;SHT30;60886;55.034;73.150;2023-04-03T03:35:25;4.30;55.26
72762;SHT30;60886;55.034;73.150;2023-04-03T03:38:26;4.41;56.11
72762;SHT30;60886;55.034;73.150;2023-04-03T03:41:30;4.55;55.55
72762;SHT30;60886;55.034;73.150;2023-04-03T03:44:32;4.67;54.35
72762;SHT30;60886;55.034;73.150;2023-04-03T03:47:33;4.69;53.35
72762;SHT30;60886;55.034;73.150;2023-04-03T03:50:35;4.72;54.02
72762;SHT30;60886;55.034;73.150;2023-04-03T03:53:37;4.95;53.88
72762;SHT30;60886;55.034;73.150;2023-04-03T03:56:43;5.09;52.86
72762;SHT30;60886;55.034;73.150;2023-04-03T03:59:45;5.23;52.04
72762;SHT30;60886;55.034;73.150;2023-04-03T04:02:48;5.22;51.53
72762;SHT30;60886;55.034;73.150;2023-04-03T04:05:53;5.32;52.16
72762;SHT30;60886;55.034;73.150;2023-04-03T04:08:59;5.49;51.94
72762;SHT30;60886;55.034;73.150;2023-04-03T04:12:01;5.53;52.00
72762;SHT30;60886;55.034;73.150;2023-04-03T04:15:14;5.57;53.07
72762;SHT30;60886;55.034;73.150;2023-04-03T04:18:15;5.70;51.40
72762;SHT30;60886;55.034;73.150;2023-04-03T04:21:28;5.71;53.34
72762;SHT30;60886;55.034;73.150;2023-04-03T04:24:31;5.87;51.03
72762;SHT30;60886;55.034;73.150;2023-04-03T04:27:33;5.95;51.13
72762;SHT30;60886;55.034;73.150;2023-04-03T04:30:35;6.05;51.71
72762;SHT30;60886;55.034;73.150;2023-04-03T04:33:37;6.14;51.27
72762;SHT30;60886;55.034;73.150;2023-04-03T04:36:40;6.17;50.87
72762;SHT30;60886;55.034;73.150;2023-04-03T04:39:42;6.25;51.35
72762;SHT30;60886;55.034;73.150;2023-04-03T04:42:44;6.31;50.39
72762;SHT30;60886;55.034;73.150;2023-04-03T04:46:06;6.26;50.46
72762;SHT30;60886;55.034;73.150;2023-04-03T04:49:12;6.22;50.53
72762;SHT30;60886;55.034;73.150;2023-04-03T04:52:14;6.36;50.28
72762;SHT30;60886;55.034;73.150;2023-04-03T04:55:16;6.45;50.03
72762;SHT30;60886;55.034;73.150;2023-04-03T04:58:18;6.66;51.84
72762;SHT30;60886;55.034;73.150;2023-04-03T05:01:20;6.79;50.42
72762;SHT30;60886;55.034;73.150;2023-04-03T05:04:47;6.76;49.60
72762;SHT30;60886;55.034;73.150;2023-04-03T05:07:56;6.86;49.57
72762;SHT30;60886;55.034;73.150;2023-04-03T05:10:57;6.95;51.28
72762;SHT30;60886;55.034;73.150;2023-04-03T05:14:06;6.99;50.17
72762;SHT30;60886;55.034;73.150;2023-04-03T05:17:08;7.07;51.70
72762;SHT30;60886;55.034;73.150;2023-04-03T05:20:14;7.14;50.12
72762;SHT30;60886;55.034;73.150;2023-04-03T05:23:17;7.03;51.24
72762;SHT30;60886;55.034;73.150;2023-04-03T05:26:20;7.17;51.48
72762;SHT30;60886;55.034;73.150;2023-04-03T05:29:25;7.21;51.37
72762;SHT30;60886;55.034;73.150;2023-04-03T05:32:26;7.32;50.87
72762;SHT30;60886;55.034;73.150;2023-04-03T05:35:40;7.28;49.48
72762;SHT30;60886;55.034;73.150;2023-04-03T05:38:51;7.28;50.49
72762;SHT30;60886;55.034;73.150;2023-04-03T05:41:54;7.31;49.61
72762;SHT30;60886;55.034;73.150;2023-04-03T05:44:55;7.28;50.99
72762;SHT30;60886;55.034;73.150;2023-04-03T05:47:57;7.28;50.73
72762;SHT30;60886;55.034;73.150;2023-04-03T05:50:58;7.26;50.53
72762;SHT30;60886;55.034;73.150;2023-04-03T05:54:08;7.38;51.32
72762;SHT30;60886;55.034;73.150;2023-04-03T05:57:11;7.27;51.02
72762;SHT30;60886;55.034;73.150;2023-04-03T06:00:18;7.28;51.53
72762;SHT30;60886;55.034;73.150;2023-04-03T06:03:29;7.34;52.84
72762;SHT30;60886;55.034;73.150;2023-04-03T06:06:44;7.26;51.24
72762;SHT30;60886;55.034;73.150;2023-04-03T06:09:47;7.37;51.24
72762;SHT30;60886;55.034;73.150;2023-04-03T06:12:59;7.41;52.66
72762;SHT30;60886;55.034;73.150;2023-04-03T06:16:01;7.40;51.29
72762;SHT30;60886;55.034;73.150;2023-04-03T06:19:03;7.52;51.77
72762;SHT30;60886;55.034;73.150;2023-04-03T06:22:07;7.48;51.13
72762;SHT30;60886;55.034;73.150;2023-04-03T06:25:15;7.52;50.79
72762;SHT30;60886;55.034;73.150;2023-04-03T06:28:18;7.52;50.24
72762;SHT30;60886;55.034;73.150;2023-04-03T06:31:20;7.57;50.94
72762;SHT30;60886;55.034;73.150;2023-04-03T06:34:21;7.61;50.16
72762;SHT30;60886;55.034;73.150;2023-04-03T06:37:23;7.60;50.76
72762;SHT30;60886;55.034;73.150;2023-04-03T06:40:27;7.64;51.05
72762;SHT30;60886;55.034;73.150;2023-04-03T06:43:28;7.65;51.64
72762;SHT30;60886;55.034;73.150;2023-04-03T06:46:40;7.75;51.42
72762;SHT30;60886;55.034;73.150;2023-04-03T06:49:42;7.92;51.26
72762;SHT30;60886;55.034;73.150;2023-04-03T06:52:49;7.85;50.61
72762;SHT30;60886;55.034;73.150;2023-04-03T06:55:50;7.92;50.73
72762;SHT30;60886;55.034;73.150;2023-04-03T06:58:57;7.96;52.52
72762;SHT30;60886;55.034;73.150;2023-04-03T07:01:58;8.09;50.97
72762;SHT30;60886;55.034;73.150;2023-04-03T07:05:00;7.77;51.30
72762;SHT30;60886;55.034;73.150;2023-04-03T07:08:02;7.81;52.96
72762;SHT30;60886;55.034;73.150;2023-04-03T07:11:04;7.82;52.23
72762;SHT30;60886;55.034;73.150;2023-04-03T07:14:05;7.93;53.84
72762;SHT30;60886;55.034;73.150;2023-04-03T07:17:08;7.98;51.70
72762;SHT30;60886;55.034;73.150;2023-04-03T07:20:13;8.01;53.82
72762;SHT30;60886;55.034;73.150;2023-04-03T07:23:16;8.12;53.72
72762;SHT30;60886;55.034;73.150;2023-04-03T07:26:17;8.15;53.13
72762;SHT30;60886;55.034;73.150;2023-04-03T07:29:26;8.15;52.68
72762;SHT30;60886;55.034;73.150;2023-04-03T07:32:28;8.17;52.47
72762;SHT30;60886;55.034;73.150;2023-04-03T07:35:30;8.26;53.39
72762;SHT30;60886;55.034;73.150;2023-04-03T07:38:41;8.19;51.24
72762;SHT30;60886;55.034;73.150;2023-04-03T07:41:43;8.22;53.61
72762;SHT30;60886;55.034;73.150;2023-04-03T07:44:54;8.25;52.25
72762;SHT30;60886;55.034;73.150;2023-04-03T07:47:55;8.28;52.60
72762;SHT30;60886;55.034;73.150;2023-04-03T07:51:07;8.23;53.69
72762;SHT30;60886;55.034;73.150;2023-04-03T07:54:08;8.22;52.27
72762;SHT30;60886;55.034;73.150;2023-04-03T07:57:10;8.25;51.68
72762;SHT30;60886;55.034;73.150;2023-04-03T08:00:14;8.29;52.70
72762;SHT30;60886;55.034;73.150;2023-04-03T08:03:16;8.36;52.27
72762;SHT30;60886;55.034;73.150;2023-04-03T08:06:18;8.47;52.42
72762;SHT30;60886;55.034;73.150;2023-04-03T08:09:20;8.44;51.33
72762;SHT30;60886;55.034;73.150;2023-04-03T08:12:21;8.49;52.47
72762;SHT30;60886;55.034;73.150;2023-04-03T08:15:23;8.60;52.11
72762;SHT30;60886;55.034;73.150;2023-04-03T08:18:24;8.60;52.64
72762;SHT30;60886;55.034;73.150;2023-04-03T08:21:26;8.66;52.33
72762;SHT30;60886;55.034;73.150;2023-04-03T08:24:28;8.64;51.78
72762;SHT30;60886;55.034;73.150;2023-04-03T08:27:30;8.70;51.91
72762;SHT30;60886;55.034;73.150;2023-04-03T08:30:32;8.73;51.22
72762;SHT30;60886;55.034;73.150;2023-04-03T08:33:34;8.67;50.90
72762;SHT30;60886;55.034;73.150;2023-04-03T08:36:37;8.68;51.02
72762;SHT30;60886;55.034;73.150;2023-04-03T08:39:38;8.76;52.55
72762;SHT30;60886;55.034;73.150;2023-04-03T08:46:23;8.71;52.40
72762;SHT30;60886;55.034;73.150;2023-04-03T08:49:33;8.76;53.61
72762;SHT30;60886;55.034;73.150;2023-04-03T08:52:45;8.83;52.49
72762;SHT30;60886;55.034;73.150;2023-04-03T08:55:55;8.87;52.25
72762;SHT30;60886;55.034;73.150;2023-04-03T08:59:04;8.80;51.79
72762;SHT30;60886;55.034;73.150;2023-04-03T09:02:25;8.87;51.81
72762;SHT30;60886;55.034;73.150;2023-04-03T09:09:40;8.81;50.60
72762;SHT30;60886;55.034;73.150;2023-04-03T09:13:12;8.77;50.74
72762;SHT30;60886;55.034;73.150;2023-04-03T09:16:22;8.83;51.50
72762;SHT30;60886;55.034;73.150;2023-04-03T09:19:51;8.87;51.56
72762;SHT30;60886;55.034;73.150;2023-04-03T09:23:30;8.80;49.98
72762;SHT30;60886;55.034;73.150;2023-04-03T09:26:51;8.85;50.82
72762;SHT30;60886;55.034;73.150;2023-04-03T09:29:57;9.00;49.46
72762;SHT30;60886;55.034;73.150;2023-04-03T09:32:58;9.10;50.82
72762;SHT30;60886;55.034;73.150;2023-04-03T09:36:00;9.10;48.43
72762;SHT30;60886;55.034;73.150;2023-04-03T09:39:07;9.15;48.65
72762;SHT30;60886;55.034;73.150;2023-04-03T09:42:22;9.11;48.88
72762;SHT30;60886;55.034;73.150;2023-04-03T09:48:32;9.12;47.71
72762;SHT30;60886;55.034;73.150;2023-04-03T09:51:34;9.10;49.36
72762;SHT30;60886;55.034;73.150;2023-04-03T09:54:37;9.14;48.35
72762;SHT30;60886;55.034;73.150;2023-04-03T09:57:40;9.07;47.56
72762;SHT30;60886;55.034;73.150;2023-04-03T10:00:42;9.07;48.46
72762;SHT30;60886;55.034;73.150;2023-04-03T10:03:43;9.05;49.83
72762;SHT30;60886;55.034;73.150;2023-04-03T10:06:53;9.07;49.76
72762;SHT30;60886;55.034;73.150;2023-04-03T10:09:56;9.15;49.24
72762;SHT30;60886;55.034;73.150;2023-04-03T10:16:17;9.10;48.43
72762;SHT30;60886;55.034;73.150;2023-04-03T10:26:41;9.22;47.84
72762;SHT30;60886;55.034;73.150;2023-04-03T10:29:55;9.24;48.91
72762;SHT30;60886;55.034;73.150;2023-04-03T10:36:37;9.10;47.00
72762;SHT30;60886;55.034;73.150;2023-04-03T10:40:02;9.14;47.65
72762;SHT30;60886;55.034;73.150;2023-04-03T10:43:19;9.12;46.83
72762;SHT30;60886;55.034;73.150;2023-04-03T10:46:42;9.07;46.61
72762;SHT30;60886;55.034;73.150;2023-04-03T10:56:42;9.11;47.00
72762;SHT30;60886;55.034;73.150;2023-04-03T11:00:03;9.07;46.74
72762;SHT30;60886;55.034;73.150;2023-04-03T11:03:13;9.08;46.23
72762;SHT30;60886;55.034;73.150;2023-04-03T11:06:18;9.04;46.97
72762;SHT30;60886;55.034;73.150;2023-04-03T11:09:24;9.07;46.71
72762;SHT30;60886;55.034;73.150;2023-04-03T11:12:41;9.04;46.89
72762;SHT30;60886;55.034;73.150;2023-04-03T11:15:44;9.01;46.29
72762;SHT30;60886;55.034;73.150;2023-04-03T11:22:32;8.96;47.01
72762;SHT30;60886;55.034;73.150;2023-04-03T11:25:40;8.97;46.43
72762;SHT30;60886;55.034;73.150;2023-04-03T11:28:44;8.98;47.25
72762;SHT30;60886;55.034;73.150;2023-04-03T11:35:14;9.03;47.24
72762;SHT30;60886;55.034;73.150;2023-04-03T11:38:28;9.03;45.87
72762;SHT30;60886;55.034;73.150;2023-04-03T11:41:31;9.05;46.02
72762;SHT30;60886;55.034;73.150;2023-04-03T11:44:36;9.01;46.73
72762;SHT30;60886;55.034;73.150;2023-04-03T11:47:49;9.03;46.66
72762;SHT30;60886;55.034;73.150;2023-04-03T11:50:51;8.98;46.44
72762;SHT30;60886;55.034;73.150;2023-04-03T11:53:53;8.85;46.85
72762;SHT30;60886;55.034;73.150;2023-04-03T11:56:55;8.81;47.39
72762;SHT30;60886;55.034;73.150;2023-04-03T11:59:56;8.80;47.07
72762;SHT30;60886;55.034;73.150;2023-04-03T12:09:56;8.60;47.85
72762;SHT30;60886;55.034;73.150;2023-04-03T12:13:00;8.53;47.49
72762;SHT30;60886;55.034;73.150;2023-04-03T12:16:32;8.47;48.43
72762;SHT30;60886;55.034;73.150;2023-04-03T12:19:45;8.47;48.76
72762;SHT30;60886;55.034;73.150;2023-04-03T12:23:29;8.49;50.07
72762;SHT30;60886;55.034;73.150;2023-04-03T12:33:24;8.36;50.44
72762;SHT30;60886;55.034;73.150;2023-04-03T12:37:20;8.33;49.73
72762;SHT30;60886;55.034;73.150;2023-04-03T12:40:21;8.26;49.93
72762;SHT30;60886;55.034;73.150;2023-04-03T12:46:52;8.23;50.80
72762;SHT30;60886;55.034;73.150;2023-04-03T12:49:54;8.17;51.29
72762;SHT30;60886;55.034;73.150;2023-04-03T12:53:04;8.15;51.33
72762;SHT30;60886;55.034;73.150;2023-04-03T12:56:29;8.10;51.89
72762;SHT30;60886;55.034;73.150;2023-04-03T12:59:31;8.05;51.97
72762;SHT30;60886;55.034;73.150;2023-04-03T13:02:34;8.05;52.58
72762;SHT30;60886;55.034;73.150;2023-04-03T13:05:44;7.99;52.72
72762;SHT30;60886;55.034;73.150;2023-04-03T13:08:54;7.96;53.08
72762;SHT30;60886;55.034;73.150;2023-04-03T13:12:16;7.91;53.06
72762;SHT30;60886;55.034;73.150;2023-04-03T13:15:26;7.91;53.72
72762;SHT30;60886;55.034;73.150;2023-04-03T13:18:34;7.85;53.95
72762;SHT30;60886;55.034;73.150;2023-04-03T13:21:36;7.82;53.92
72762;SHT30;60886;55.034;73.150;2023-04-03T13:24:38;7.81;54.16
72762;SHT30;60886;55.034;73.150;2023-04-03T13:27:46;7.78;54.30
72762;SHT30;60886;55.034;73.150;2023-04-03T13:31:05;7.74;54.53
72762;SHT30;60886;55.034;73.150;2023-04-03T13:34:20;7.64;55.06
72762;SHT30;60886;55.034;73.150;2023-04-03T13:37:33;7.60;55.56
72762;SHT30;60886;55.034;73.150;2023-04-03T13:40:57;7.52;55.78
72762;SHT30;60886;55.034;73.150;2023-04-03T13:47:24;7.35;56.61
72762;SHT30;60886;55.034;73.150;2023-04-03T13:50:31;7.26;57.05
72762;SHT30;60886;55.034;73.150;2023-04-03T13:53:34;7.21;57.05
72762;SHT30;60886;55.034;73.150;2023-04-03T13:56:57;7.20;57.35
72762;SHT30;60886;55.034;73.150;2023-04-03T14:00:47;7.16;57.58
72762;SHT30;60886;55.034;73.150;2023-04-03T14:03:57;7.03;58.59
72762;SHT30;60886;55.034;73.150;2023-04-03T14:06:59;6.93;59.26
72762;SHT30;60886;55.034;73.150;2023-04-03T14:10:01;6.93;59.48
72762;SHT30;60886;55.034;73.150;2023-04-03T14:13:03;6.85;60.53
72762;SHT30;60886;55.034;73.150;2023-04-03T14:16:04;6.72;61.41
72762;SHT30;60886;55.034;73.150;2023-04-03T14:19:06;6.68;62.79
72762;SHT30;60886;55.034;73.150;2023-04-03T14:22:22;6.63;63.55
72762;SHT30;60886;55.034;73.150;2023-04-03T14:25:24;6.53;63.75
72762;SHT30;60886;55.034;73.150;2023-04-03T14:28:31;6.43;64.49
72762;SHT30;60886;55.034;73.150;2023-04-03T14:31:33;6.38;65.15
72762;SHT30;60886;55.034;73.150;2023-04-03T14:34:35;6.29;65.83
72762;SHT30;60886;55.034;73.150;2023-04-03T14:37:36;6.26;66.63
72762;SHT30;60886;55.034;73.150;2023-04-03T14:40:38;6.17;66.78
72762;SHT30;60886;55.034;73.150;2023-04-03T14:43:50;6.14;66.98
72762;SHT30;60886;55.034;73.150;2023-04-03T14:46:52;6.11;67.12
72762;SHT30;60886;55.034;73.150;2023-04-03T14:49:54;6.04;67.73
72762;SHT30;60886;55.034;73.150;2023-04-03T14:52:58;5.97;67.69
72762;SHT30;60886;55.034;73.150;2023-04-03T14:56:00;5.93;67.76
72762;SHT30;60886;55.034;73.150;2023-04-03T14:59:02;5.90;68.11
72762;SHT30;60886;55.034;73.150;2023-04-03T15:05:32;5.71;69.26
72762;SHT30;60886;55.034;73.150;2023-04-03T15:08:47;5.59;69.86
72762;SHT30;60886;55.034;73.150;2023-04-03T15:11:59;5.54;70.13
72762;SHT30;60886;55.034;73.150;2023-04-03T15:15:00;5.46;69.82
72762;SHT30;60886;55.034;73.150;2023-04-03T15:18:09;5.47;69.80
72762;SHT30;60886;55.034;73.150;2023-04-03T15:21:11;5.46;69.76
72762;SHT30;60886;55.034;73.150;2023-04-03T15:24:13;5.44;69.86
72762;SHT30;60886;55.034;73.150;2023-04-03T15:27:19;5.40;69.82
72762;SHT30;60886;55.034;73.150;2023-04-03T15:30:25;5.32;69.94
72762;SHT30;60886;55.034;73.150;2023-04-03T15:33:32;5.27;69.95
72762;SHT30;60886;55.034;73.150;2023-04-03T15:36:35;5.26;69.91
72762;SHT30;60886;55.034;73.150;2023-04-03T15:39:36;5.27;69.60
72762;SHT30;60886;55.034;73.150;2023-04-03T15:42:38;5.25;69.86
72762;SHT30;60886;55.034;73.150;2023-04-03T15:45:40;5.20;69.92
72762;SHT30;60886;55.034;73.150;2023-04-03T15:48:41;5.25;69.63
72762;SHT30;60886;55.034;73.150;2023-04-03T15:51:43;5.22;69.60
72762;SHT30;60886;55.034;73.150;2023-04-03T15:54:44;5.15;69.82
72762;SHT30;60886;55.034;73.150;2023-04-03T15:57:46;5.18;69.55
72762;SHT30;60886;55.034;73.150;2023-04-03T16:00:52;5.16;69.48
72762;SHT30;60886;55.034;73.150;2023-04-03T16:03:54;5.04;69.85
72762;SHT30;60886;55.034;73.150;2023-04-03T16:06:55;4.88;70.26
72762;SHT30;60886;55.034;73.150;2023-04-03T16:09:57;4.78;70.46
72762;SHT30;60886;55.034;73.150;2023-04-03T16:12:58;4.71;70.59
72762;SHT30;60886;55.034;73.150;2023-04-03T16:16:10;4.67;70.48
72762;SHT30;60886;55.034;73.150;2023-04-03T16:19:11;4.60;70.40
72762;SHT30;60886;55.034;73.150;2023-04-03T16:22:13;4.57;70.42
72762;SHT30;60886;55.034;73.150;2023-04-03T16:25:15;4.61;70.31
72762;SHT30;60886;55.034;73.150;2023-04-03T16:28:17;4.58;70.13
72762;SHT30;60886;55.034;73.150;2023-04-03T16:31:19;4.50;70.10
72762;SHT30;60886;55.034;73.150;2023-04-03T16:34:21;4.45;70.23
72762;SHT30;60886;55.034;73.150;2023-04-03T16:37:23;4.42;70.17
72762;SHT30;60886;55.034;73.150;2023-04-03T16:40:30;4.42;70.08
72762;SHT30;60886;55.034;73.150;2023-04-03T16:43:32;4.45;69.86
72762;SHT30;60886;55.034;73.150;2023-04-03T16:46:34;4.42;69.71
72762;SHT30;60886;55.034;73.150;2023-04-03T16:49:35;4.41;69.44
72762;SHT30;60886;55.034;73.150;2023-04-03T16:52:46;4.42;69.60
72762;SHT30;60886;55.034;73.150;2023-04-03T16:55:48;4.37;69.49
72762;SHT30;60886;55.034;73.150;2023-04-03T16:58:50;4.25;69.56
72762;SHT30;60886;55.034;73.150;2023-04-03T17:01:52;4.16;69.82
72762;SHT30;60886;55.034;73.150;2023-04-03T17:04:53;4.13;69.70
72762;SHT30;60886;55.034;73.150;2023-04-03T17:08:00;4.11;69.46
72762;SHT30;60886;55.034;73.150;2023-04-03T17:11:13;4.17;69.13
72762;SHT30;60886;55.034;73.150;2023-04-03T17:14:15;4.13;69.19
72762;SHT30;60886;55.034;73.150;2023-04-03T17:17:21;4.06;69.28
72762;SHT30;60886;55.034;73.150;2023-04-03T17:20:30;4.03;69.18
72762;SHT30;60886;55.034;73.150;2023-04-03T17:23:36;4.04;68.98
72762;SHT30;60886;55.034;73.150;2023-04-03T17:26:40;4.00;68.90
72762;SHT30;60886;55.034;73.150;2023-04-03T17:29:42;4.01;68.79
72762;SHT30;60886;55.034;73.150;2023-04-03T17:32:49;4.01;68.43
72762;SHT30;60886;55.034;73.150;2023-04-03T17:35:51;4.07;68.34
72762;SHT30;60886;55.034;73.150;2023-04-03T17:38:52;4.00;68.07
72762;SHT30;60886;55.034;73.150;2023-04-03T17:41:54;3.94;68.26
72762;SHT30;60886;55.034;73.150;2023-04-03T17:44:55;3.85;68.38
72762;SHT30;60886;55.034;73.150;2023-04-03T17:47:57;3.82;68.40
72762;SHT30;60886;55.034;73.150;2023-04-03T17:51:08;3.75;68.31
72762;SHT30;60886;55.034;73.150;2023-04-03T17:54:11;3.67;68.49
72762;SHT30;60886;55.034;73.150;2023-04-03T17:57:12;3.66;68.35
72762;SHT30;60886;55.034;73.150;2023-04-03T18:00:23;3.62;68.18
72762;SHT30;60886;55.034;73.150;2023-04-03T18:03:24;3.59;67.98
72762;SHT30;60886;55.034;73.150;2023-04-03T18:06:29;3.58;68.19
72762;SHT30;60886;55.034;73.150;2023-04-03T18:09:32;3.62;67.84
72762;SHT30;60886;55.034;73.150;2023-04-03T18:12:34;3.51;68.22
72762;SHT30;60886;55.034;73.150;2023-04-03T18:15:37;3.49;68.03
72762;SHT30;60886;55.034;73.150;2023-04-03T18:18:45;3.52;67.86
72762;SHT30;60886;55.034;73.150;2023-04-03T18:21:55;3.51;67.60
72762;SHT30;60886;55.034;73.150;2023-04-03T18:24:57;3.42;67.81
72762;SHT30;60886;55.034;73.150;2023-04-03T18:28:00;3.36;67.98
72762;SHT30;60886;55.034;73.150;2023-04-03T18:31:07;3.32;67.69
72762;SHT30;60886;55.034;73.150;2023-04-03T18:34:21;3.28;67.74
72762;SHT30;60886;55.034;73.150;2023-04-03T18:37:22;3.32;67.36
72762;SHT30;60886;55.034;73.150;2023-04-03T18:40:25;3.25;67.59
72762;SHT30;60886;55.034;73.150;2023-04-03T18:43:26;3.24;67.73
72762;SHT30;60886;55.034;73.150;2023-04-03T18:46:35;3.21;67.44
72762;SHT30;60886;55.034;73.150;2023-04-03T18:49:47;3.25;67.58
72762;SHT30;60886;55.034;73.150;2023-04-03T18:52:48;3.31;67.20
72762;SHT30;60886;55.034;73.150;2023-04-03T18:55:51;3.36;66.65
72762;SHT30;60886;55.034;73.150;2023-04-03T18:58:52;3.39;66.35
72762;SHT30;60886;55.034;73.150;2023-04-03T19:01:58;3.42;65.89
72762;SHT30;60886;55.034;73.150;2023-04-03T19:05:15;3.43;65.01
72762;SHT30;60886;55.034;73.150;2023-04-03T19:08:17;3.40;65.98
72762;SHT30;60886;55.034;73.150;2023-04-03T19:11:22;3.38;65.82
72762;SHT30;60886;55.034;73.150;2023-04-03T19:14:24;3.35;65.29
72762;SHT30;60886;55.034;73.150;2023-04-03T19:17:32;3.28;65.57
72762;SHT30;60886;55.034;73.150;2023-04-03T19:20:43;3.18;65.12
72762;SHT30;60886;55.034;73.150;2023-04-03T19:23:50;3.18;65.18
72762;SHT30;60886;55.034;73.150;2023-04-03T19:27:01;3.09;65.82
72762;SHT30;60886;55.034;73.150;2023-04-03T19:30:05;3.00;65.65
72762;SHT30;60886;55.034;73.150;2023-04-03T19:33:07;3.08;65.48
72762;SHT30;60886;55.034;73.150;2023-04-03T19:36:09;3.15;65.33
72762;SHT30;60886;55.034;73.150;2023-04-03T19:39:11;3.19;64.49
72762;SHT30;60886;55.034;73.150;2023-04-03T19:42:13;3.16;64.17
72762;SHT30;60886;55.034;73.150;2023-04-03T19:45:15;3.14;64.12
72762;SHT30;60886;55.034;73.150;2023-04-03T19:48:18;3.07;64.38
72762;SHT30;60886;55.034;73.150;2023-04-03T19:51:19;3.05;64.54
72762;SHT30;60886;55.034;73.150;2023-04-03T19:54:22;3.14;64.15
72762;SHT30;60886;55.034;73.150;2023-04-03T19:57:24;3.18;63.65
72762;SHT30;60886;55.034;73.150;2023-04-03T20:00:26;3.24;64.49
72762;SHT30;60886;55.034;73.150;2023-04-03T20:03:28;3.22;64.74
72762;SHT30;60886;55.034;73.150;2023-04-03T20:06:30;3.15;65.03
72762;SHT30;60886;55.034;73.150;2023-04-03T20:09:42;3.08;65.30
72762;SHT30;60886;55.034;73.150;2023-04-03T20:12:43;3.08;64.92
72762;SHT30;60886;55.034;73.150;2023-04-03T20:15:55;3.04;64.61
72762;SHT30;60886;55.034;73.150;2023-04-03T20:18:58;3.09;63.00
72762;SHT30;60886;55.034;73.150;2023-04-03T20:22:00;3.15;63.44
72762;SHT30;60886;55.034;73.150;2023-04-03T20:25:04;3.15;62.40
72762;SHT30;60886;55.034;73.150;2023-04-03T20:28:06;3.09;63.06
72762;SHT30;60886;55.034;73.150;2023-04-03T20:31:08;3.04;63.01
72762;SHT30;60886;55.034;73.150;2023-04-03T20:34:11;3.04;62.78
72762;SHT30;60886;55.034;73.150;2023-04-03T20:37:13;3.03;62.99
72762;SHT30;60886;55.034;73.150;2023-04-03T20:40:21;3.03;62.79
72762;SHT30;60886;55.034;73.150;2023-04-03T20:43:24;3.00;62.51